Historyczne dane pomiarowe

Dodano dane terminowe – wersja testowa.

Dane z okresu 1951-2019

Wersja bazy: 1.34 [2019-03-16, lista zmian], aktualizacja planowana na 2019-04-15

Dane meteo z obszaru Polski uzyskane na podstawie danych udostępnionych przez Instytut Meteorologii i Gospodarki Wodnej – Państwowy Instytut Badawczy.

 

Wybierz Datę:    

       

TemperaturaWilgotnośćWiatrCiśnienieOpadyŚniegCzas trwania zjawisk
 Stacja t tx tn tng RH VA  wxwx mslp ppp RRR   cm mm wxwxwxwxwxwxwx
1956-10-11 6.8 9.8 -2.5 -2.0 82.8- 7.3 2.3---- 0.1------------
1956-10-12 9.5 10.6 7.1 5.9 84.5- 8.0 5.0---- 0.0------------
1956-10-13 9.9 11.6 6.8 6.3 76.3- 8.0 7.3---- 14.1------------
1956-10-14 7.7 10.2 5.4 6.4 73.0- 6.3 7.7---- 0.6------------
1956-10-15 6.4 9.8 1.7 1.3 78.5- 3.3 4.3---- 0.0------------
1956-10-16 4.1 7.9 0.4 0.8 82.3- 4.7 2.3---- 0.0------------
1956-10-17 3.1 10.6 -3.0 -3.4 82.5- 1.7 0.3---- 0.0------------
1956-10-18 7.9 13.2 -1.4 -4.7 78.5- 6.7 1.0---- 0.9------------
1956-10-19 11.1 12.2 7.0 6.4 92.0- 8.0 3.7---- 2.6------------
1956-10-20 8.2 12.4 4.5 2.3 92.0- 6.3 1.0---- 0.0------------
1956-10-21 11.7 15.0 6.0 5.7 88.3- 6.0 1.7---- 0.0------------
1956-10-22 9.9 12.5 8.7 8.5 90.3- 8.0 2.7---- 0.0------------
1956-10-23 9.8 11.0 7.5 2.0 77.5- 8.0 4.0---- 0.0------------
1956-10-24 10.1 14.3 1.5 1.7 84.8- 7.0 1.7---- 0.0------------
1956-10-25 9.3 16.4 3.7 3.6 88.5- 0.0 1.0---- 0.0------------
1956-10-26 7.4 14.4 1.5 0.3 91.8- 0.7 1.3---- 0.0------------
1956-10-27 7.4 10.7 2.3 1.4 95.3- 5.3 2.7---- 1.2------------
1956-10-28 9.5 10.4 7.8 8.4 95.8- 8.0 4.0---- 15.3------------
1956-10-29 6.7 11.1 4.0 3.6 85.3- 5.7 2.3---- 1.6------------
1956-10-30 -1.4 5.1 -3.8 -1.5 89.0- 8.0 3.3---- 1.4------------
1956-10-31 -5.8 -2.8 -7.8 -5.6 76.3- 2.7 2.7---- 0.0------------
1956-11-01 -0.8 1.2 -7.4 -8.4 64.0- 7.7 4.7---- 2.7------------
1956-11-02 -1.3 2.5 -4.1 -1.8 80.5- 3.3 1.3---- 0.0-- 1---------
1956-11-03 -1.6 -0.5 -4.5 -4.9 90.0- 8.0 0.7---- 0.0------------
1956-11-04 -2.4 2.4 -7.5 -7.7 83.5- 1.0 0.7---- 0.0------------
1956-11-05 0.8 4.1 -7.3 -8.3 88.5- 6.0 4.0---- 0.9------------
1956-11-06 0.5 4.2 -1.2 -1.5 85.0- 3.0 5.3---- 0.0------------
1956-11-07 -1.8 0.9 -4.8 -2.9 71.5- 5.0 6.0---- 0.0------------
1956-11-08 -4.9 -1.8 -7.4 -5.6 68.0- 0.7 3.3---- 0.0------------
1956-11-09 -5.7 -4.0-10.2 -7.6 77.8- 6.7 1.0---- 0.0------------
112.5 ms

 

Źródłem pochodzenia danych jest Instytut Meteorologii i Gospodarki Wodnej – Państwowy Instytut Badawczy. Dane Instytutu Meteorologii i Gospodarki Wodnej – Państwowego Instytutu Badawczego zostały przetworzone.

Dane źródłowe można odnaleźć na stronie https://dane.imgw.pl